createdAt,value
2022-12-31T00:00:05.643Z,100372.00
2022-12-31T00:02:32.308Z,100385.31
2022-12-31T00:04:59.289Z,100398.53
2022-12-31T00:07:25.527Z,100397.09
2022-12-31T00:09:51.965Z,100391.81
2022-12-31T00:12:18.154Z,100380.16
2022-12-31T00:14:44.613Z,100375.03
2022-12-31T00:17:10.836Z,100378.44
2022-12-31T00:19:37.506Z,100374.75
2022-12-31T00:22:03.635Z,100370.91
2022-12-31T00:24:30.339Z,100377.44
2022-12-31T00:26:56.672Z,100381.84
2022-12-31T00:29:23.330Z,100372.44
2022-12-31T00:31:49.852Z,100373.31
2022-12-31T00:34:16.418Z,100356.94
2022-12-31T00:36:42.786Z,100357.25
2022-12-31T00:39:09.770Z,100364.34
2022-12-31T00:41:36.825Z,100365.59
2022-12-31T00:44:03.477Z,100361.59
2022-12-31T00:46:30.968Z,100360.91
2022-12-31T00:48:57.527Z,100377.09
2022-12-31T00:51:26.617Z,100379.22
2022-12-31T00:53:53.805Z,100388.03
2022-12-31T00:56:23.326Z,100390.56
2022-12-31T00:58:50.360Z,100388.56
2022-12-31T01:01:31.820Z,100386.88
2022-12-31T01:04:03.128Z,100382.16
2022-12-31T01:06:29.761Z,100382.00
2022-12-31T01:08:56.286Z,100377.31
2022-12-31T01:11:23.451Z,100373.47
2022-12-31T01:13:53.544Z,100390.22
2022-12-31T01:16:23.071Z,100386.38
2022-12-31T01:18:49.950Z,100380.88
2022-12-31T01:21:17.128Z,100384.38
2022-12-31T01:23:44.134Z,100384.88
2022-12-31T01:26:12.840Z,100385.75
2022-12-31T01:28:39.408Z,100387.59
2022-12-31T01:31:07.787Z,100379.56
2022-12-31T01:33:34.657Z,100372.63
2022-12-31T01:36:06.342Z,100378.56
2022-12-31T01:38:34.025Z,100378.50
2022-12-31T01:41:00.554Z,100379.66
2022-12-31T01:43:47.967Z,100377.91
2022-12-31T01:46:24.228Z,100375.50
2022-12-31T01:48:55.202Z,100381.75
2022-12-31T01:51:22.972Z,100377.91
2022-12-31T01:53:49.884Z,100375.06
2022-12-31T01:56:17.533Z,100387.03
2022-12-31T01:58:47.525Z,100395.84
2022-12-31T02:01:21.005Z,100397.22
2022-12-31T02:03:47.636Z,100394.53
2022-12-31T02:06:21.005Z,100401.63
2022-12-31T02:08:48.131Z,100406.44
2022-12-31T02:11:20.371Z,100407.59
2022-12-31T02:13:46.912Z,100395.38
2022-12-31T02:16:24.617Z,100398.63
2022-12-31T02:19:45.606Z,100402.72
2022-12-31T02:22:26.440Z,100389.91
2022-12-31T02:25:05.013Z,100380.09
2022-12-31T02:27:49.627Z,100383.50
2022-12-31T02:30:22.484Z,100376.69
2022-12-31T02:33:28.131Z,100388.34
2022-12-31T02:36:04.756Z,100389.91
2022-12-31T02:38:38.206Z,100388.59
2022-12-31T02:41:04.629Z,100398.41
2022-12-31T02:43:30.900Z,100406.81
2022-12-31T02:46:09.466Z,100402.81
2022-12-31T02:48:54.564Z,100411.31
2022-12-31T02:51:30.127Z,100415.03
2022-12-31T02:54:02.020Z,100411.72
2022-12-31T02:56:52.676Z,100419.97
2022-12-31T02:59:49.607Z,100420.44
2022-12-31T03:02:20.499Z,100418.13
2022-12-31T03:04:51.156Z,100421.13
2022-12-31T03:07:22.031Z,100422.53
2022-12-31T03:09:49.196Z,100419.13
2022-12-31T03:12:37.378Z,100425.63
2022-12-31T03:15:05.970Z,100424.94
2022-12-31T03:17:33.797Z,100424.63
2022-12-31T03:20:26.688Z,100420.91
2022-12-31T03:22:53.237Z,100423.16
2022-12-31T03:25:34.782Z,100419.59
2022-12-31T03:28:03.856Z,100424.31
2022-12-31T03:30:31.388Z,100426.31
2022-12-31T03:32:58.300Z,100420.44
2022-12-31T03:35:26.897Z,100418.91
2022-12-31T03:37:53.887Z,100408.94
2022-12-31T03:40:22.881Z,100411.94
2022-12-31T03:42:50.354Z,100417.75
2022-12-31T03:45:17.361Z,100423.16
2022-12-31T03:47:44.216Z,100417.13
2022-12-31T03:50:12.988Z,100408.16
2022-12-31T03:52:39.516Z,100419.69
2022-12-31T03:55:06.782Z,100407.16
2022-12-31T03:57:33.720Z,100404.28
2022-12-31T03:59:59.916Z,100404.28
2022-12-31T04:02:29.017Z,100414.53
2022-12-31T04:04:55.748Z,100409.53
2022-12-31T04:07:22.632Z,100413.94
2022-12-31T04:09:48.821Z,100418.81
2022-12-31T04:12:15.389Z,100423.09
2022-12-31T04:14:41.578Z,100436.22
2022-12-31T04:17:08.121Z,100432.91
2022-12-31T04:19:34.304Z,100428.50
2022-12-31T04:22:00.844Z,100437.94
2022-12-31T04:24:27.157Z,100438.94
2022-12-31T04:26:53.816Z,100434.53
2022-12-31T04:29:20.312Z,100428.72
2022-12-31T04:31:46.854Z,100431.28
2022-12-31T04:34:13.177Z,100433.91
2022-12-31T04:36:39.668Z,100429.41
2022-12-31T04:39:05.818Z,100426.63
2022-12-31T04:41:32.460Z,100422.91
2022-12-31T04:44:01.622Z,100433.75
2022-12-31T04:46:33.054Z,100432.75
2022-12-31T04:48:59.582Z,100436.84
2022-12-31T04:51:28.156Z,100433.53
2022-12-31T04:53:54.639Z,100438.78
2022-12-31T04:56:21.348Z,100436.78
2022-12-31T04:58:47.656Z,100435.22
2022-12-31T05:01:14.775Z,100425.25
2022-12-31T05:03:41.693Z,100424.69
2022-12-31T05:06:15.143Z,100419.69
2022-12-31T05:08:42.362Z,100424.00
2022-12-31T05:11:09.781Z,100429.41
2022-12-31T05:13:36.434Z,100433.75
2022-12-31T05:16:04.228Z,100436.44
2022-12-31T05:18:32.082Z,100433.19
2022-12-31T05:20:59.801Z,100434.50
2022-12-31T05:23:26.608Z,100425.31
2022-12-31T05:25:53.446Z,100425.00
2022-12-31T05:28:19.793Z,100421.06
2022-12-31T05:30:50.326Z,100434.97
2022-12-31T05:33:18.079Z,100433.13
2022-12-31T05:35:45.290Z,100438.97
2022-12-31T05:38:11.544Z,100442.22
2022-12-31T05:40:38.103Z,100431.25
2022-12-31T05:43:04.309Z,100436.81
2022-12-31T05:45:31.452Z,100435.44
2022-12-31T05:47:57.931Z,100430.31
2022-12-31T05:50:24.553Z,100425.22
2022-12-31T05:52:55.635Z,100432.63
2022-12-31T05:55:23.281Z,100438.59
2022-12-31T05:57:49.512Z,100435.03
2022-12-31T06:00:16.308Z,100439.69
2022-12-31T06:02:42.647Z,100438.13
2022-12-31T06:05:09.606Z,100451.19
2022-12-31T06:07:35.751Z,100440.28
2022-12-31T06:10:04.813Z,100443.00
2022-12-31T06:12:31.082Z,100429.47
2022-12-31T06:14:57.583Z,100429.63
2022-12-31T06:17:24.011Z,100444.53
2022-12-31T06:19:50.604Z,100447.94
2022-12-31T06:22:17.070Z,100443.53
2022-12-31T06:24:43.563Z,100442.22
2022-12-31T06:27:10.073Z,100442.78
2022-12-31T06:29:36.664Z,100450.44
2022-12-31T06:32:03.189Z,100452.13
2022-12-31T06:34:29.641Z,100457.09
2022-12-31T06:36:55.825Z,100453.06
2022-12-31T06:39:22.354Z,100451.06
2022-12-31T06:41:48.619Z,100457.88
2022-12-31T06:44:15.210Z,100443.03
2022-12-31T06:46:41.378Z,100444.56
2022-12-31T06:49:07.911Z,100442.44
2022-12-31T06:51:34.121Z,100434.16
2022-12-31T06:54:00.818Z,100440.97
2022-12-31T06:56:33.879Z,100439.81
2022-12-31T06:59:02.994Z,100441.66
2022-12-31T07:01:38.328Z,100428.69
2022-12-31T07:04:57.833Z,100423.56
2022-12-31T07:07:41.942Z,100429.00
2022-12-31T07:10:17.216Z,100428.13
2022-12-31T07:12:46.368Z,100427.59
2022-12-31T07:15:32.238Z,100431.22
2022-12-31T07:18:06.232Z,100433.09
2022-12-31T07:20:33.264Z,100414.97
2022-12-31T07:22:59.680Z,100413.97
2022-12-31T07:25:26.627Z,100421.78
2022-12-31T07:28:26.938Z,100426.00
2022-12-31T07:31:02.554Z,100438.53
2022-12-31T07:34:01.321Z,100448.75
2022-12-31T07:36:46.446Z,100455.41
2022-12-31T07:39:19.718Z,100454.63
2022-12-31T07:42:02.654Z,100454.44
2022-12-31T07:44:35.015Z,100450.97
2022-12-31T07:47:04.800Z,100461.63
2022-12-31T07:49:33.098Z,100454.41
2022-12-31T07:51:59.852Z,100456.44
2022-12-31T07:54:26.149Z,100452.72
2022-12-31T07:56:53.044Z,100464.63
2022-12-31T07:59:42.882Z,100453.16
2022-12-31T08:02:25.867Z,100459.00
2022-12-31T08:04:59.686Z,100445.44
2022-12-31T08:07:41.170Z,100422.22
2022-12-31T08:10:34.814Z,100423.41
2022-12-31T08:13:04.924Z,100418.72
2022-12-31T08:15:31.459Z,100417.34
2022-12-31T08:17:58.427Z,100424.44
2022-12-31T08:20:25.340Z,100425.50
2022-12-31T08:23:07.874Z,100426.25
2022-12-31T08:25:36.942Z,100425.22
2022-12-31T08:28:19.308Z,100416.66
2022-12-31T08:31:01.281Z,100420.91
2022-12-31T08:33:33.678Z,100419.88
2022-12-31T08:36:12.686Z,100417.00
2022-12-31T08:39:02.356Z,100420.06
2022-12-31T08:41:42.926Z,100415.50
2022-12-31T08:44:28.380Z,100420.06
2022-12-31T08:47:11.874Z,100411.63
2022-12-31T08:49:38.570Z,100404.69
2022-12-31T08:52:14.467Z,100411.88
2022-12-31T08:54:41.260Z,100418.00
2022-12-31T08:57:26.990Z,100405.47
2022-12-31T09:00:16.135Z,100416.50
2022-12-31T09:03:01.631Z,100422.63
2022-12-31T09:05:32.453Z,100413.66
2022-12-31T09:08:07.665Z,100415.19
2022-12-31T09:10:58.421Z,100421.81
2022-12-31T09:13:39.663Z,100411.59
2022-12-31T09:16:18.419Z,100406.16
2022-12-31T09:18:44.912Z,100394.06
2022-12-31T09:21:14.200Z,100385.41
2022-12-31T09:23:41.238Z,100394.72
2022-12-31T09:26:32.976Z,100394.88
2022-12-31T09:29:09.872Z,100392.50
2022-12-31T09:32:03.089Z,100405.72
2022-12-31T09:34:39.919Z,100397.88
2022-12-31T09:37:15.279Z,100390.75
2022-12-31T09:39:44.802Z,100384.16
2022-12-31T09:42:49.392Z,100376.84
2022-12-31T09:45:21.716Z,100376.81
2022-12-31T09:47:48.346Z,100381.72
2022-12-31T09:50:34.879Z,100372.34
2022-12-31T09:53:07.550Z,100371.66
2022-12-31T09:55:45.306Z,100357.50
2022-12-31T09:58:11.899Z,100370.22
2022-12-31T10:00:52.812Z,100372.09
2022-12-31T10:03:37.683Z,100380.19
2022-12-31T10:06:16.690Z,100380.03
2022-12-31T10:09:17.604Z,100386.16
2022-12-31T10:12:08.406Z,100376.63
2022-12-31T10:15:08.563Z,100383.06
2022-12-31T10:17:59.566Z,100383.00
2022-12-31T10:20:58.374Z,100377.38
2022-12-31T10:23:31.993Z,100379.88
2022-12-31T10:26:21.598Z,100376.25
2022-12-31T10:29:01.142Z,100382.00
2022-12-31T10:31:39.482Z,100375.91
2022-12-31T10:34:13.951Z,100370.09
2022-12-31T10:37:03.180Z,100368.50
2022-12-31T10:39:48.203Z,100348.25
2022-12-31T10:42:57.385Z,100357.06
2022-12-31T10:45:41.794Z,100351.09
2022-12-31T10:48:36.291Z,100348.28
2022-12-31T10:51:24.917Z,100332.25
2022-12-31T10:53:54.538Z,100336.47
2022-12-31T10:56:23.661Z,100336.97
2022-12-31T10:59:05.569Z,100338.63
2022-12-31T11:01:47.573Z,100332.97
2022-12-31T11:04:35.743Z,100321.94
2022-12-31T11:07:27.625Z,100319.53
2022-12-31T11:10:01.877Z,100308.25
2022-12-31T11:12:43.491Z,100317.09
2022-12-31T11:15:16.323Z,100313.53
2022-12-31T11:17:57.575Z,100307.53
2022-12-31T11:20:28.101Z,100322.34
2022-12-31T11:23:08.288Z,100316.16
2022-12-31T11:26:12.587Z,100320.88
2022-12-31T11:28:51.949Z,100314.84
2022-12-31T11:31:30.874Z,100308.66
2022-12-31T11:34:18.954Z,100297.09
2022-12-31T11:37:04.100Z,100300.84
2022-12-31T11:40:12.129Z,100295.84
2022-12-31T11:42:58.149Z,100308.75
2022-12-31T11:45:50.695Z,100298.50
2022-12-31T11:48:36.789Z,100303.56
2022-12-31T11:51:24.920Z,100310.34
2022-12-31T11:54:49.644Z,100300.75
2022-12-31T11:57:21.703Z,100295.75
2022-12-31T11:59:51.797Z,100303.47
2022-12-31T12:02:26.965Z,100316.53
2022-12-31T12:05:01.699Z,100313.44
2022-12-31T12:07:32.948Z,100307.22
2022-12-31T12:10:03.812Z,100304.28
2022-12-31T12:12:40.831Z,100304.75
2022-12-31T12:15:10.726Z,100304.00
2022-12-31T12:17:38.540Z,100297.31
2022-12-31T12:20:17.612Z,100302.00
2022-12-31T12:22:52.900Z,100300.19
2022-12-31T12:25:24.590Z,100284.00
2022-12-31T12:27:53.515Z,100302.75
2022-12-31T12:30:25.972Z,100302.53
2022-12-31T12:32:56.100Z,100305.28
2022-12-31T12:35:26.233Z,100312.53
2022-12-31T12:38:04.828Z,100307.91
2022-12-31T12:40:34.420Z,100313.72
2022-12-31T12:43:02.481Z,100324.53
2022-12-31T12:45:43.614Z,100313.03
2022-12-31T12:48:27.851Z,100322.53
2022-12-31T12:50:57.629Z,100323.84
2022-12-31T12:53:49.885Z,100319.50
2022-12-31T12:56:19.452Z,100314.56
2022-12-31T12:59:07.291Z,100306.81
2022-12-31T13:01:46.977Z,100309.03
2022-12-31T13:04:38.225Z,100318.72
2022-12-31T13:07:11.268Z,100316.03
2022-12-31T13:09:40.472Z,100315.84
2022-12-31T13:12:15.202Z,100309.34
2022-12-31T13:14:44.590Z,100310.00
2022-12-31T13:17:49.796Z,100311.69
2022-12-31T13:20:26.382Z,100311.88
2022-12-31T13:23:14.570Z,100301.34
2022-12-31T13:26:02.565Z,100310.19
2022-12-31T13:28:31.912Z,100308.69
2022-12-31T13:31:06.799Z,100302.03
2022-12-31T13:33:49.971Z,100305.97
2022-12-31T13:36:20.031Z,100315.00
2022-12-31T13:38:50.661Z,100312.00
2022-12-31T13:41:35.358Z,100316.63
2022-12-31T13:44:28.213Z,100319.56
2022-12-31T13:47:01.951Z,100318.31
2022-12-31T13:49:43.894Z,100327.94
2022-12-31T13:52:27.385Z,100333.81
2022-12-31T13:55:19.827Z,100341.09
2022-12-31T13:57:58.460Z,100340.06
2022-12-31T14:00:30.734Z,100344.66
2022-12-31T14:03:20.175Z,100351.38
2022-12-31T14:06:03.149Z,100361.06
2022-12-31T14:08:31.980Z,100353.44
2022-12-31T14:11:34.551Z,100361.25
2022-12-31T14:14:10.044Z,100365.69
2022-12-31T14:16:52.758Z,100361.63
2022-12-31T14:19:50.423Z,100365.41
2022-12-31T14:22:26.590Z,100364.31
2022-12-31T14:25:01.372Z,100369.75
2022-12-31T14:27:43.847Z,100370.16
2022-12-31T14:30:30.314Z,100381.06
2022-12-31T14:32:57.015Z,100375.81
2022-12-31T14:35:29.246Z,100383.91
2022-12-31T14:38:16.653Z,100387.03
2022-12-31T14:41:16.819Z,100393.06
2022-12-31T14:44:01.942Z,100388.66
2022-12-31T14:46:44.656Z,100395.16
2022-12-31T14:49:47.851Z,100395.16
2022-12-31T14:52:25.872Z,100396.84
2022-12-31T14:55:08.460Z,100400.22
2022-12-31T14:58:01.642Z,100398.53
2022-12-31T15:00:29.170Z,100407.75
2022-12-31T15:03:03.133Z,100407.28
2022-12-31T15:05:36.071Z,100407.53
2022-12-31T15:08:18.785Z,100409.69
2022-12-31T15:10:48.313Z,100412.81
2022-12-31T15:13:44.415Z,100409.31
2022-12-31T15:16:24.932Z,100409.59
2022-12-31T15:19:18.995Z,100411.47
2022-12-31T15:22:10.584Z,100423.44
2022-12-31T15:24:43.701Z,100411.00
2022-12-31T15:27:28.373Z,100418.94
2022-12-31T15:29:55.052Z,100411.97
2022-12-31T15:32:30.738Z,100419.03
2022-12-31T15:35:19.888Z,100421.31
2022-12-31T15:38:17.328Z,100418.31
2022-12-31T15:40:46.702Z,100406.72
2022-12-31T15:43:41.242Z,100416.34
2022-12-31T15:46:18.291Z,100434.34
2022-12-31T15:49:03.769Z,100430.66
2022-12-31T15:52:02.935Z,100437.72
2022-12-31T15:54:40.360Z,100436.78
2022-12-31T15:57:15.449Z,100441.75
2022-12-31T15:59:43.293Z,100440.25
2022-12-31T16:02:23.508Z,100446.75
2022-12-31T16:04:52.120Z,100450.88
2022-12-31T16:07:18.534Z,100448.72
2022-12-31T16:09:57.440Z,100468.66
2022-12-31T16:12:32.664Z,100476.38
2022-12-31T16:15:01.713Z,100472.81
2022-12-31T16:17:33.842Z,100468.75
2022-12-31T16:20:20.569Z,100490.22
2022-12-31T16:22:52.377Z,100477.22
2022-12-31T16:25:30.811Z,100479.09
2022-12-31T16:28:00.401Z,100483.06
2022-12-31T16:30:32.920Z,100479.66
2022-12-31T16:33:05.947Z,100488.03
2022-12-31T16:35:35.717Z,100486.16
2022-12-31T16:38:11.135Z,100491.91
2022-12-31T16:40:38.583Z,100493.31
2022-12-31T16:43:23.469Z,100490.59
2022-12-31T16:45:50.602Z,100489.56
2022-12-31T16:48:19.172Z,100492.09
2022-12-31T16:50:49.012Z,100504.03
2022-12-31T16:53:21.777Z,100499.34
2022-12-31T16:56:01.739Z,100500.69
2022-12-31T16:58:36.080Z,100495.41
2022-12-31T17:01:22.739Z,100507.81
2022-12-31T17:03:52.924Z,100513.66
2022-12-31T17:06:22.498Z,100514.50
2022-12-31T17:08:55.024Z,100515.34
2022-12-31T17:11:29.832Z,100517.91
2022-12-31T17:14:05.656Z,100517.03
2022-12-31T17:16:38.623Z,100511.88
2022-12-31T17:19:06.037Z,100508.50
2022-12-31T17:21:33.930Z,100513.00
2022-12-31T17:24:03.829Z,100529.06
2022-12-31T17:26:33.280Z,100521.25
2022-12-31T17:29:01.849Z,100528.59
2022-12-31T17:31:39.676Z,100516.84
2022-12-31T17:34:12.284Z,100509.03
2022-12-31T17:36:57.599Z,100511.94
2022-12-31T17:39:25.508Z,100515.03
2022-12-31T17:41:56.509Z,100519.81
2022-12-31T17:44:27.452Z,100524.78
2022-12-31T17:46:54.688Z,100535.03
2022-12-31T17:49:30.574Z,100544.91
2022-12-31T17:51:57.891Z,100545.78
2022-12-31T17:54:24.258Z,100550.19
2022-12-31T17:56:52.835Z,100542.00
2022-12-31T17:59:28.924Z,100544.91
2022-12-31T18:02:00.397Z,100551.03
2022-12-31T18:04:27.028Z,100545.22
2022-12-31T18:06:56.378Z,100543.72
2022-12-31T18:09:22.934Z,100533.34
2022-12-31T18:11:50.021Z,100541.16
2022-12-31T18:14:16.586Z,100549.81
2022-12-31T18:16:43.835Z,100546.91
2022-12-31T18:19:23.690Z,100535.72
2022-12-31T18:22:03.641Z,100542.97
2022-12-31T18:24:31.029Z,100534.41
2022-12-31T18:26:59.789Z,100528.41
2022-12-31T18:29:26.489Z,100522.28
2022-12-31T18:31:53.368Z,100523.63
2022-12-31T18:34:19.656Z,100526.72
2022-12-31T18:36:46.486Z,100532.16
2022-12-31T18:39:12.878Z,100535.75
2022-12-31T18:41:48.226Z,100536.78
2022-12-31T18:44:15.571Z,100530.47
2022-12-31T18:46:42.404Z,100532.53
2022-12-31T18:49:11.135Z,100535.63
2022-12-31T18:51:37.805Z,100527.47
2022-12-31T18:54:04.250Z,100538.00
2022-12-31T18:56:31.382Z,100531.03
2022-12-31T18:58:58.938Z,100543.81
2022-12-31T19:01:34.441Z,100538.91
2022-12-31T19:04:27.516Z,100536.75
2022-12-31T19:06:55.303Z,100531.47
2022-12-31T19:12:11.683Z,100529.28
2022-12-31T19:14:38.016Z,100537.84
2022-12-31T19:19:30.438Z,100547.13
2022-12-31T19:21:56.903Z,100542.50
2022-12-31T19:24:25.853Z,100551.91
2022-12-31T19:26:53.592Z,100549.34
2022-12-31T19:29:22.593Z,100557.34
2022-12-31T19:31:49.372Z,100552.09
2022-12-31T19:34:15.876Z,100553.97
2022-12-31T19:36:44.233Z,100556.69
2022-12-31T19:39:15.682Z,100551.06
2022-12-31T19:41:43.026Z,100542.50
2022-12-31T19:44:17.116Z,100550.50
2022-12-31T19:46:45.028Z,100552.88
2022-12-31T19:49:12.694Z,100549.78
2022-12-31T19:51:39.828Z,100558.63
2022-12-31T19:54:06.932Z,100559.84
2022-12-31T19:56:33.541Z,100558.16
2022-12-31T19:59:07.352Z,100567.00
2022-12-31T20:01:34.039Z,100553.16
2022-12-31T20:04:00.402Z,100563.72
2022-12-31T20:06:26.867Z,100551.97
2022-12-31T20:08:53.419Z,100539.16
2022-12-31T20:11:21.661Z,100550.75
2022-12-31T20:13:49.493Z,100552.63
2022-12-31T20:16:18.422Z,100559.28
2022-12-31T20:18:46.420Z,100547.34
2022-12-31T20:21:21.933Z,100563.34
2022-12-31T20:23:49.371Z,100563.72
2022-12-31T20:26:17.294Z,100564.38
2022-12-31T20:28:44.153Z,100554.50
2022-12-31T20:31:16.361Z,100567.28
2022-12-31T20:33:43.270Z,100561.47
2022-12-31T20:36:12.400Z,100554.97
2022-12-31T20:38:38.555Z,100556.03
2022-12-31T20:41:11.697Z,100552.25
2022-12-31T20:43:39.148Z,100561.66
2022-12-31T20:46:23.702Z,100564.56
2022-12-31T20:48:51.962Z,100550.44
2022-12-31T20:51:20.308Z,100553.34
2022-12-31T20:53:49.281Z,100559.84
2022-12-31T20:56:16.410Z,100556.25
2022-12-31T20:58:43.171Z,100567.53
2022-12-31T21:01:10.862Z,100568.94
2022-12-31T21:04:04.977Z,100561.13
2022-12-31T21:06:26.590Z,100565.91
2022-12-31T21:08:54.489Z,100558.75
2022-12-31T21:11:39.731Z,100562.31
2022-12-31T21:14:07.663Z,100554.16
2022-12-31T21:16:34.775Z,100542.22
2022-12-31T21:19:01.964Z,100544.09
2022-12-31T21:21:28.632Z,100539.84
2022-12-31T21:23:54.965Z,100559.22
2022-12-31T21:26:22.149Z,100552.94
2022-12-31T21:28:49.544Z,100553.28
2022-12-31T21:31:16.607Z,100556.69
2022-12-31T21:33:44.675Z,100551.06
2022-12-31T21:36:12.019Z,100554.44
2022-12-31T21:38:38.955Z,100551.53
2022-12-31T21:41:07.537Z,100561.78
2022-12-31T21:43:34.314Z,100555.28
2022-12-31T21:46:06.634Z,100554.28
2022-12-31T21:48:33.384Z,100562.63
2022-12-31T21:51:13.942Z,100565.53
2022-12-31T21:53:40.371Z,100564.88
2022-12-31T21:56:09.043Z,100562.81
2022-12-31T21:58:40.380Z,100565.91
2022-12-31T22:01:33.254Z,100556.69
2022-12-31T22:03:59.646Z,100569.84
2022-12-31T22:06:26.317Z,100566.75
2022-12-31T22:08:54.739Z,100560.44
2022-12-31T22:11:24.525Z,100559.78
2022-12-31T22:13:51.299Z,100571.84
2022-12-31T22:16:19.465Z,100572.19
2022-12-31T22:18:46.370Z,100569.00
2022-12-31T22:21:19.252Z,100568.31
2022-12-31T22:23:51.481Z,100564.94
2022-12-31T22:26:20.811Z,100562.88
2022-12-31T22:28:47.755Z,100566.25
2022-12-31T22:31:23.718Z,100562.88
2022-12-31T22:33:50.617Z,100565.66
2022-12-31T22:36:19.777Z,100560.56
2022-12-31T22:38:47.299Z,100565.53
2022-12-31T22:41:19.242Z,100571.81
2022-12-31T22:43:48.708Z,100568.25
2022-12-31T22:46:21.454Z,100565.53
2022-12-31T22:48:48.562Z,100553.94
2022-12-31T22:51:16.700Z,100566.00
2022-12-31T22:53:43.528Z,100555.94
2022-12-31T22:56:15.185Z,100559.72
2022-12-31T22:58:41.703Z,100552.38
2022-12-31T23:01:18.416Z,100561.41
2022-12-31T23:03:46.376Z,100561.94
2022-12-31T23:06:13.071Z,100562.97
2022-12-31T23:08:39.430Z,100570.78
2022-12-31T23:11:08.837Z,100568.06
2022-12-31T23:13:56.973Z,100577.28
2022-12-31T23:16:44.105Z,100578.78
2022-12-31T23:19:29.989Z,100573.34
2022-12-31T23:22:15.428Z,100587.81
2022-12-31T23:24:42.123Z,100593.28
2022-12-31T23:27:09.796Z,100591.56
2022-12-31T23:29:45.581Z,100586.47
2022-12-31T23:32:15.324Z,100600.09
2022-12-31T23:34:43.788Z,100596.06
2022-12-31T23:37:13.757Z,100594.56
2022-12-31T23:39:40.340Z,100604.25
2022-12-31T23:42:06.999Z,100607.66
2022-12-31T23:44:33.337Z,100603.75
2022-12-31T23:47:00.001Z,100608.19
2022-12-31T23:49:26.373Z,100601.03
2022-12-31T23:51:53.084Z,100604.78
2022-12-31T23:54:19.503Z,100611.09
2022-12-31T23:56:46.108Z,100609.41
2022-12-31T23:59:12.709Z,100614.84
